createdAt,value
2019-05-18T00:00:02.051Z,1.46
2019-05-18T00:15:01.498Z,1.41
2019-05-18T00:30:01.960Z,1.35
2019-05-18T00:45:01.414Z,1.32
2019-05-18T01:00:02.000Z,1.33
2019-05-18T01:15:01.636Z,1.7
2019-05-18T01:30:02.063Z,1.62
2019-05-18T01:45:15.707Z,1.4
2019-05-18T02:00:01.720Z,1.27
2019-05-18T02:15:01.238Z,1.32
2019-05-18T02:30:01.946Z,1.51
2019-05-18T02:45:01.566Z,1.42
2019-05-18T03:00:01.973Z,1.33
2019-05-18T03:15:01.374Z,1.37
2019-05-18T03:30:01.782Z,1.37
2019-05-18T03:45:01.303Z,1.42
2019-05-18T04:00:01.726Z,1.27
2019-05-18T04:15:02.186Z,1.33
2019-05-18T04:30:01.903Z,1.62
2019-05-18T04:45:01.319Z,1.51
2019-05-18T05:00:01.773Z,1.36
2019-05-18T05:15:02.184Z,1.19
2019-05-18T05:30:01.580Z,1.35
2019-05-18T05:45:01.992Z,1.5
2019-05-18T06:00:01.365Z,1.34
2019-05-18T06:15:01.786Z,1.41
2019-05-18T06:30:01.152Z,1.44
2019-05-18T06:45:01.546Z,1.29
2019-05-18T07:00:01.943Z,1.54
2019-05-18T07:15:01.363Z,1.43
2019-05-18T07:30:01.748Z,1.23
2019-05-18T07:45:02.244Z,1.51
2019-05-18T08:00:01.755Z,1.85
2019-05-18T08:15:01.373Z,2.02
2019-05-18T08:30:01.951Z,1.89
2019-05-18T08:45:01.339Z,2.17
2019-05-18T09:00:01.717Z,2.02
2019-05-18T09:15:01.201Z,2.24
2019-05-18T09:30:01.583Z,2.05
2019-05-18T09:45:01.984Z,2.09
2019-05-18T10:00:01.376Z,2.2
2019-05-18T10:15:02.037Z,2.23
2019-05-18T10:30:02.092Z,2.13
2019-05-18T10:45:01.487Z,2.09
2019-05-18T11:00:02.006Z,1.91
2019-05-18T11:15:01.622Z,2.1
2019-05-18T11:30:02.005Z,2.58
2019-05-18T11:45:01.543Z,2.17
2019-05-18T12:00:03.241Z,2.26
2019-05-18T12:15:03.205Z,2.13
2019-05-18T12:30:03.183Z,2.19
2019-05-18T12:45:03.972Z,2.24
2019-05-18T13:00:02.794Z,2.08
2019-05-18T13:15:03.925Z,1.97
2019-05-18T13:30:11.998Z,2
2019-05-18T13:45:01.489Z,2.08
2019-05-18T14:00:01.881Z,1.81
2019-05-18T14:15:01.320Z,2.07
2019-05-18T14:30:02.188Z,1.94
2019-05-18T14:45:01.595Z,1.92
2019-05-18T15:00:02.608Z,2.24
2019-05-18T15:15:02.086Z,1.86
2019-05-18T15:30:01.501Z,1.83
2019-05-18T15:45:01.400Z,1.85
2019-05-18T16:00:06.259Z,2.12
2019-05-18T16:15:02.115Z,2.34
2019-05-18T16:30:01.499Z,2.15
2019-05-18T16:45:02.002Z,1.98
2019-05-18T17:00:01.444Z,2.17
2019-05-18T17:15:01.999Z,2.49
2019-05-18T17:30:01.439Z,2.16
2019-05-18T17:45:01.931Z,2.09
2019-05-18T18:00:01.618Z,2.53
2019-05-18T18:15:02.666Z,3.04
2019-05-18T18:30:02.129Z,2.37
2019-05-18T18:45:01.548Z,1.75
2019-05-18T19:00:01.989Z,1.55
2019-05-18T19:15:01.380Z,1.27
2019-05-18T19:30:01.896Z,1.26
2019-05-18T19:45:02.021Z,1.28
2019-05-18T20:00:02.255Z,1.38
2019-05-18T20:15:01.734Z,1.28
2019-05-18T20:30:01.191Z,1.21
2019-05-18T20:45:01.596Z,1.13
2019-05-18T21:00:02.172Z,1.14
2019-05-18T21:15:01.880Z,1.27
2019-05-18T21:30:01.451Z,1.43
2019-05-18T21:45:02.158Z,1.24
2019-05-18T22:00:01.608Z,1.18
2019-05-18T22:15:02.048Z,1.44
2019-05-18T22:30:01.629Z,1.33
2019-05-18T22:45:02.168Z,1.26
2019-05-18T23:00:01.849Z,1.23
2019-05-18T23:15:07.446Z,1.32
2019-05-18T23:30:08.241Z,1.48
2019-05-18T23:45:08.263Z,1.29
